sensor_id;sensor_type;location;lat;lon;timestamp;temperature;humidity
7972;DHT22;4031;49.758;6.120;2023-03-23T00:01:21;9.80;99.90
7972;DHT22;4031;49.758;6.120;2023-03-23T00:03:50;9.80;99.90
7972;DHT22;4031;49.758;6.120;2023-03-23T00:06:18;9.80;99.90
7972;DHT22;4031;49.758;6.120;2023-03-23T00:08:46;9.90;99.90
7972;DHT22;4031;49.758;6.120;2023-03-23T00:13:44;9.90;99.90
7972;DHT22;4031;49.758;6.120;2023-03-23T00:16:12;9.90;99.90
7972;DHT22;4031;49.758;6.120;2023-03-23T00:18:50;9.90;99.90
7972;DHT22;4031;49.758;6.120;2023-03-23T00:21:23;10.00;99.90
7972;DHT22;4031;49.758;6.120;2023-03-23T00:23:51;9.90;99.90
7972;DHT22;4031;49.758;6.120;2023-03-23T00:26:17;10.00;99.90
7972;DHT22;4031;49.758;6.120;2023-03-23T00:28:43;10.00;99.90
7972;DHT22;4031;49.758;6.120;2023-03-23T00:31:12;10.00;99.90
7972;DHT22;4031;49.758;6.120;2023-03-23T00:33:39;10.00;99.90
7972;DHT22;4031;49.758;6.120;2023-03-23T00:36:09;10.00;99.90
7972;DHT22;4031;49.758;6.120;2023-03-23T00:38:37;10.10;99.90
7972;DHT22;4031;49.758;6.120;2023-03-23T00:41:05;10.10;99.90
7972;DHT22;4031;49.758;6.120;2023-03-23T00:43:31;10.20;99.90
7972;DHT22;4031;49.758;6.120;2023-03-23T00:46:01;10.10;99.90
7972;DHT22;4031;49.758;6.120;2023-03-23T00:48:34;10.10;99.90
7972;DHT22;4031;49.758;6.120;2023-03-23T00:51:02;10.20;99.90
7972;DHT22;4031;49.758;6.120;2023-03-23T00:53:32;10.30;99.90
7972;DHT22;4031;49.758;6.120;2023-03-23T00:55:58;10.40;99.90
7972;DHT22;4031;49.758;6.120;2023-03-23T00:58:24;10.50;99.90
7972;DHT22;4031;49.758;6.120;2023-03-23T01:00:50;10.50;99.90
7972;DHT22;4031;49.758;6.120;2023-03-23T01:03:16;10.50;99.90
7972;DHT22;4031;49.758;6.120;2023-03-23T01:05:44;10.40;99.90
7972;DHT22;4031;49.758;6.120;2023-03-23T01:08:13;10.40;99.90
7972;DHT22;4031;49.758;6.120;2023-03-23T01:10:40;10.30;99.90
7972;DHT22;4031;49.758;6.120;2023-03-23T01:13:06;10.20;99.90
7972;DHT22;4031;49.758;6.120;2023-03-23T01:15:33;10.20;99.90
7972;DHT22;4031;49.758;6.120;2023-03-23T01:17:59;10.10;99.90
7972;DHT22;4031;49.758;6.120;2023-03-23T01:20:25;10.00;99.90
7972;DHT22;4031;49.758;6.120;2023-03-23T01:22:54;9.90;99.90
7972;DHT22;4031;49.758;6.120;2023-03-23T01:25:26;9.90;99.90
7972;DHT22;4031;49.758;6.120;2023-03-23T01:27:53;9.80;99.90
7972;DHT22;4031;49.758;6.120;2023-03-23T01:30:19;9.70;99.90
7972;DHT22;4031;49.758;6.120;2023-03-23T01:32:45;9.70;99.90
7972;DHT22;4031;49.758;6.120;2023-03-23T01:35:12;9.70;99.90
7972;DHT22;4031;49.758;6.120;2023-03-23T01:37:39;9.60;99.90
7972;DHT22;4031;49.758;6.120;2023-03-23T01:40:05;9.60;99.90
7972;DHT22;4031;49.758;6.120;2023-03-23T01:42:34;9.60;99.90
7972;DHT22;4031;49.758;6.120;2023-03-23T01:45:27;9.60;99.90
7972;DHT22;4031;49.758;6.120;2023-03-23T01:50:59;9.60;99.90
7972;DHT22;4031;49.758;6.120;2023-03-23T01:53:34;9.60;99.90
7972;DHT22;4031;49.758;6.120;2023-03-23T01:56:03;9.60;99.90
7972;DHT22;4031;49.758;6.120;2023-03-23T01:58:32;9.60;99.90
7972;DHT22;4031;49.758;6.120;2023-03-23T02:01:04;9.60;99.90
7972;DHT22;4031;49.758;6.120;2023-03-23T02:03:34;9.60;99.90
7972;DHT22;4031;49.758;6.120;2023-03-23T02:06:02;9.60;99.90
7972;DHT22;4031;49.758;6.120;2023-03-23T02:08:29;9.60;99.90
7972;DHT22;4031;49.758;6.120;2023-03-23T02:10:58;9.60;99.90
7972;DHT22;4031;49.758;6.120;2023-03-23T02:13:24;9.60;99.90
7972;DHT22;4031;49.758;6.120;2023-03-23T02:16:14;9.60;99.90
7972;DHT22;4031;49.758;6.120;2023-03-23T02:21:55;9.60;99.90
7972;DHT22;4031;49.758;6.120;2023-03-23T02:30:31;9.60;99.90
7972;DHT22;4031;49.758;6.120;2023-03-23T02:33:28;9.70;99.90
7972;DHT22;4031;49.758;6.120;2023-03-23T02:39:09;9.70;99.90
7972;DHT22;4031;49.758;6.120;2023-03-23T02:41:47;9.70;99.90
7972;DHT22;4031;49.758;6.120;2023-03-23T02:44:17;9.80;99.90
7972;DHT22;4031;49.758;6.120;2023-03-23T02:46:44;9.80;99.90
7972;DHT22;4031;49.758;6.120;2023-03-23T02:49:12;9.80;99.90
7972;DHT22;4031;49.758;6.120;2023-03-23T02:51:40;9.80;99.90
7972;DHT22;4031;49.758;6.120;2023-03-23T02:54:08;9.80;99.90
7972;DHT22;4031;49.758;6.120;2023-03-23T02:56:35;9.80;99.90
7972;DHT22;4031;49.758;6.120;2023-03-23T02:59:01;9.80;99.90
7972;DHT22;4031;49.758;6.120;2023-03-23T03:04:00;9.80;99.90
7972;DHT22;4031;49.758;6.120;2023-03-23T03:12:01;9.90;99.90
7972;DHT22;4031;49.758;6.120;2023-03-23T03:14:38;9.90;99.90
7972;DHT22;4031;49.758;6.120;2023-03-23T03:17:23;9.90;99.90
7972;DHT22;4031;49.758;6.120;2023-03-23T03:19:54;9.90;99.90
7972;DHT22;4031;49.758;6.120;2023-03-23T03:22:23;9.90;99.90
7972;DHT22;4031;49.758;6.120;2023-03-23T03:24:55;10.00;99.90
7972;DHT22;4031;49.758;6.120;2023-03-23T03:27:23;10.00;99.90
7972;DHT22;4031;49.758;6.120;2023-03-23T03:29:54;10.00;99.90
7972;DHT22;4031;49.758;6.120;2023-03-23T03:32:28;10.00;99.90
7972;DHT22;4031;49.758;6.120;2023-03-23T03:35:00;10.20;99.90
7972;DHT22;4031;49.758;6.120;2023-03-23T03:37:26;10.00;99.90
7972;DHT22;4031;49.758;6.120;2023-03-23T03:39:52;10.00;99.90
7972;DHT22;4031;49.758;6.120;2023-03-23T03:42:18;10.00;99.90
7972;DHT22;4031;49.758;6.120;2023-03-23T03:44:43;10.00;99.90
7972;DHT22;4031;49.758;6.120;2023-03-23T03:47:09;10.00;99.90
7972;DHT22;4031;49.758;6.120;2023-03-23T03:49:35;10.00;99.90
7972;DHT22;4031;49.758;6.120;2023-03-23T03:52:01;10.00;99.90
7972;DHT22;4031;49.758;6.120;2023-03-23T03:54:27;10.00;99.90
7972;DHT22;4031;49.758;6.120;2023-03-23T03:56:53;10.00;99.90
7972;DHT22;4031;49.758;6.120;2023-03-23T03:59:23;10.00;99.90
7972;DHT22;4031;49.758;6.120;2023-03-23T04:01:48;10.00;99.90
7972;DHT22;4031;49.758;6.120;2023-03-23T04:04:19;9.90;99.90
7972;DHT22;4031;49.758;6.120;2023-03-23T04:06:47;9.90;99.90
7972;DHT22;4031;49.758;6.120;2023-03-23T04:09:14;10.00;99.90
7972;DHT22;4031;49.758;6.120;2023-03-23T04:11:40;10.00;99.90
7972;DHT22;4031;49.758;6.120;2023-03-23T04:14:06;10.00;99.90
7972;DHT22;4031;49.758;6.120;2023-03-23T04:16:32;10.00;99.90
7972;DHT22;4031;49.758;6.120;2023-03-23T04:19:00;10.00;99.90
7972;DHT22;4031;49.758;6.120;2023-03-23T04:21:27;10.00;99.90
7972;DHT22;4031;49.758;6.120;2023-03-23T04:23:58;10.00;99.90
7972;DHT22;4031;49.758;6.120;2023-03-23T04:26:27;10.00;99.90
7972;DHT22;4031;49.758;6.120;2023-03-23T04:28:54;10.00;99.90
7972;DHT22;4031;49.758;6.120;2023-03-23T04:31:22;10.00;99.90
7972;DHT22;4031;49.758;6.120;2023-03-23T04:33:51;10.00;99.90
7972;DHT22;4031;49.758;6.120;2023-03-23T04:36:18;9.80;99.90
7972;DHT22;4031;49.758;6.120;2023-03-23T04:38:43;9.90;99.90
7972;DHT22;4031;49.758;6.120;2023-03-23T04:41:09;9.90;99.90
7972;DHT22;4031;49.758;6.120;2023-03-23T04:43:35;9.90;99.90
7972;DHT22;4031;49.758;6.120;2023-03-23T04:46:07;9.90;99.90
7972;DHT22;4031;49.758;6.120;2023-03-23T04:48:34;10.00;99.90
7972;DHT22;4031;49.758;6.120;2023-03-23T04:51:04;10.00;99.90
7972;DHT22;4031;49.758;6.120;2023-03-23T04:53:31;10.00;99.90
7972;DHT22;4031;49.758;6.120;2023-03-23T04:55:57;10.00;99.90
7972;DHT22;4031;49.758;6.120;2023-03-23T04:58:23;10.10;99.90
7972;DHT22;4031;49.758;6.120;2023-03-23T05:00:50;10.10;99.90
7972;DHT22;4031;49.758;6.120;2023-03-23T05:03:19;10.10;99.90
7972;DHT22;4031;49.758;6.120;2023-03-23T05:05:46;10.10;99.90
7972;DHT22;4031;49.758;6.120;2023-03-23T05:08:20;10.10;99.90
7972;DHT22;4031;49.758;6.120;2023-03-23T05:11:06;10.10;99.90
7972;DHT22;4031;49.758;6.120;2023-03-23T05:13:32;10.10;99.90
7972;DHT22;4031;49.758;6.120;2023-03-23T05:16:02;10.10;99.90
7972;DHT22;4031;49.758;6.120;2023-03-23T05:18:29;10.10;99.90
7972;DHT22;4031;49.758;6.120;2023-03-23T05:20:54;10.20;99.90
7972;DHT22;4031;49.758;6.120;2023-03-23T05:23:20;10.20;99.90
7972;DHT22;4031;49.758;6.120;2023-03-23T05:25:59;10.20;99.90
7972;DHT22;4031;49.758;6.120;2023-03-23T05:28:28;10.20;99.90
7972;DHT22;4031;49.758;6.120;2023-03-23T05:30:56;10.20;99.90
7972;DHT22;4031;49.758;6.120;2023-03-23T05:33:22;10.20;99.90
7972;DHT22;4031;49.758;6.120;2023-03-23T05:35:48;10.30;99.90
7972;DHT22;4031;49.758;6.120;2023-03-23T05:38:15;10.30;99.90
7972;DHT22;4031;49.758;6.120;2023-03-23T05:40:41;10.30;99.90
7972;DHT22;4031;49.758;6.120;2023-03-23T05:43:08;10.30;99.90
7972;DHT22;4031;49.758;6.120;2023-03-23T05:45:34;10.30;99.90
7972;DHT22;4031;49.758;6.120;2023-03-23T05:48:00;10.30;99.90
7972;DHT22;4031;49.758;6.120;2023-03-23T05:50:27;10.30;99.90
7972;DHT22;4031;49.758;6.120;2023-03-23T05:52:54;10.40;99.90
7972;DHT22;4031;49.758;6.120;2023-03-23T05:55:20;10.40;99.90
7972;DHT22;4031;49.758;6.120;2023-03-23T05:57:46;10.40;99.90
7972;DHT22;4031;49.758;6.120;2023-03-23T06:00:13;10.40;99.90
7972;DHT22;4031;49.758;6.120;2023-03-23T06:02:39;10.40;99.90
7972;DHT22;4031;49.758;6.120;2023-03-23T06:05:09;10.40;99.90
7972;DHT22;4031;49.758;6.120;2023-03-23T06:07:35;10.40;99.90
7972;DHT22;4031;49.758;6.120;2023-03-23T06:10:06;10.50;99.90
7972;DHT22;4031;49.758;6.120;2023-03-23T06:12:32;10.50;99.90
7972;DHT22;4031;49.758;6.120;2023-03-23T06:14:58;10.50;99.90
7972;DHT22;4031;49.758;6.120;2023-03-23T06:17:24;10.60;99.90
7972;DHT22;4031;49.758;6.120;2023-03-23T06:19:50;10.60;99.90
7972;DHT22;4031;49.758;6.120;2023-03-23T06:22:16;10.60;99.90
7972;DHT22;4031;49.758;6.120;2023-03-23T06:24:43;10.60;99.90
7972;DHT22;4031;49.758;6.120;2023-03-23T06:27:09;10.60;99.90
7972;DHT22;4031;49.758;6.120;2023-03-23T06:29:36;10.70;99.90
7972;DHT22;4031;49.758;6.120;2023-03-23T06:32:04;10.70;99.90
7972;DHT22;4031;49.758;6.120;2023-03-23T06:34:30;10.70;99.90
7972;DHT22;4031;49.758;6.120;2023-03-23T06:36:58;10.70;99.90
7972;DHT22;4031;49.758;6.120;2023-03-23T06:39:24;10.80;99.90
7972;DHT22;4031;49.758;6.120;2023-03-23T06:41:50;10.80;99.90
7972;DHT22;4031;49.758;6.120;2023-03-23T06:44:16;10.90;99.90
7972;DHT22;4031;49.758;6.120;2023-03-23T06:46:42;10.90;99.90
7972;DHT22;4031;49.758;6.120;2023-03-23T06:49:08;10.90;99.90
7972;DHT22;4031;49.758;6.120;2023-03-23T06:51:34;10.90;99.90
7972;DHT22;4031;49.758;6.120;2023-03-23T06:54:00;10.80;99.90
7972;DHT22;4031;49.758;6.120;2023-03-23T06:56:26;10.70;99.90
7972;DHT22;4031;49.758;6.120;2023-03-23T06:58:52;10.60;99.90
7972;DHT22;4031;49.758;6.120;2023-03-23T07:01:18;10.60;99.90
7972;DHT22;4031;49.758;6.120;2023-03-23T07:03:44;10.60;99.90
7972;DHT22;4031;49.758;6.120;2023-03-23T07:06:10;10.60;99.90
7972;DHT22;4031;49.758;6.120;2023-03-23T07:08:36;10.60;99.90
7972;DHT22;4031;49.758;6.120;2023-03-23T07:11:02;10.70;99.90
7972;DHT22;4031;49.758;6.120;2023-03-23T07:13:28;10.70;99.90
7972;DHT22;4031;49.758;6.120;2023-03-23T07:15:53;10.80;99.90
7972;DHT22;4031;49.758;6.120;2023-03-23T07:18:20;10.80;99.90
7972;DHT22;4031;49.758;6.120;2023-03-23T07:20:50;10.70;99.90
7972;DHT22;4031;49.758;6.120;2023-03-23T07:23:17;10.70;99.90
7972;DHT22;4031;49.758;6.120;2023-03-23T07:25:44;10.70;99.90
7972;DHT22;4031;49.758;6.120;2023-03-23T07:28:11;10.70;99.90
7972;DHT22;4031;49.758;6.120;2023-03-23T07:30:38;10.60;99.90
7972;DHT22;4031;49.758;6.120;2023-03-23T07:33:05;10.60;99.90
7972;DHT22;4031;49.758;6.120;2023-03-23T07:35:32;10.60;99.90
7972;DHT22;4031;49.758;6.120;2023-03-23T07:37:58;10.60;99.90
7972;DHT22;4031;49.758;6.120;2023-03-23T07:40:24;10.60;99.90
7972;DHT22;4031;49.758;6.120;2023-03-23T07:42:55;10.70;99.90
7972;DHT22;4031;49.758;6.120;2023-03-23T07:45:22;10.70;99.90
7972;DHT22;4031;49.758;6.120;2023-03-23T07:47:48;10.80;99.90
7972;DHT22;4031;49.758;6.120;2023-03-23T07:50:14;10.80;99.90
7972;DHT22;4031;49.758;6.120;2023-03-23T07:52:40;10.90;99.90
7972;DHT22;4031;49.758;6.120;2023-03-23T07:55:11;11.00;99.90
7972;DHT22;4031;49.758;6.120;2023-03-23T07:57:43;11.00;99.90
7972;DHT22;4031;49.758;6.120;2023-03-23T08:00:10;10.90;99.90
7972;DHT22;4031;49.758;6.120;2023-03-23T08:02:54;10.80;99.90
7972;DHT22;4031;49.758;6.120;2023-03-23T08:05:22;10.70;99.90
7972;DHT22;4031;49.758;6.120;2023-03-23T08:07:52;10.60;99.90
7972;DHT22;4031;49.758;6.120;2023-03-23T08:10:21;10.50;99.90
7972;DHT22;4031;49.758;6.120;2023-03-23T08:12:51;10.40;99.90
7972;DHT22;4031;49.758;6.120;2023-03-23T08:15:18;10.40;99.90
7972;DHT22;4031;49.758;6.120;2023-03-23T08:17:47;10.40;99.90
7972;DHT22;4031;49.758;6.120;2023-03-23T08:20:13;10.40;99.90
7972;DHT22;4031;49.758;6.120;2023-03-23T08:22:42;10.50;99.90
7972;DHT22;4031;49.758;6.120;2023-03-23T08:25:11;10.50;99.90
7972;DHT22;4031;49.758;6.120;2023-03-23T08:27:39;10.60;99.90
7972;DHT22;4031;49.758;6.120;2023-03-23T08:30:15;10.70;99.90
7972;DHT22;4031;49.758;6.120;2023-03-23T08:32:43;10.90;99.90
7972;DHT22;4031;49.758;6.120;2023-03-23T08:35:10;10.90;99.90
7972;DHT22;4031;49.758;6.120;2023-03-23T08:37:38;11.00;99.90
7972;DHT22;4031;49.758;6.120;2023-03-23T08:40:07;11.00;99.90
7972;DHT22;4031;49.758;6.120;2023-03-23T08:42:37;11.00;99.90
7972;DHT22;4031;49.758;6.120;2023-03-23T08:45:08;10.90;99.90
7972;DHT22;4031;49.758;6.120;2023-03-23T08:47:37;10.90;99.90
7972;DHT22;4031;49.758;6.120;2023-03-23T08:50:05;10.90;99.90
7972;DHT22;4031;49.758;6.120;2023-03-23T08:52:32;10.90;99.90
7972;DHT22;4031;49.758;6.120;2023-03-23T08:54:58;10.90;99.90
7972;DHT22;4031;49.758;6.120;2023-03-23T08:57:25;10.90;99.90
7972;DHT22;4031;49.758;6.120;2023-03-23T08:59:51;10.90;99.90
7972;DHT22;4031;49.758;6.120;2023-03-23T09:02:20;11.00;99.90
7972;DHT22;4031;49.758;6.120;2023-03-23T09:04:46;11.10;99.90
7972;DHT22;4031;49.758;6.120;2023-03-23T09:07:12;11.30;99.90
7972;DHT22;4031;49.758;6.120;2023-03-23T09:09:39;11.50;99.90
7972;DHT22;4031;49.758;6.120;2023-03-23T09:12:07;11.60;99.90
7972;DHT22;4031;49.758;6.120;2023-03-23T09:14:37;11.90;99.90
7972;DHT22;4031;49.758;6.120;2023-03-23T09:17:04;12.10;99.90
7972;DHT22;4031;49.758;6.120;2023-03-23T09:19:32;12.30;99.90
7972;DHT22;4031;49.758;6.120;2023-03-23T09:21:58;12.40;99.90
7972;DHT22;4031;49.758;6.120;2023-03-23T09:24:25;12.50;99.90
7972;DHT22;4031;49.758;6.120;2023-03-23T09:26:52;12.70;99.90
7972;DHT22;4031;49.758;6.120;2023-03-23T09:29:18;12.90;99.90
7972;DHT22;4031;49.758;6.120;2023-03-23T09:31:44;13.10;99.90
7972;DHT22;4031;49.758;6.120;2023-03-23T09:34:12;13.10;99.90
7972;DHT22;4031;49.758;6.120;2023-03-23T09:36:41;13.00;99.90
7972;DHT22;4031;49.758;6.120;2023-03-23T09:39:08;12.90;99.90
7972;DHT22;4031;49.758;6.120;2023-03-23T09:44:42;12.90;99.90
7972;DHT22;4031;49.758;6.120;2023-03-23T09:47:48;13.00;99.90
7972;DHT22;4031;49.758;6.120;2023-03-23T09:50:27;13.10;99.90
7972;DHT22;4031;49.758;6.120;2023-03-23T09:53:05;13.40;99.90
7972;DHT22;4031;49.758;6.120;2023-03-23T09:55:37;13.80;99.90
7972;DHT22;4031;49.758;6.120;2023-03-23T10:03:47;13.90;99.90
7972;DHT22;4031;49.758;6.120;2023-03-23T10:06:17;13.90;99.90
7972;DHT22;4031;49.758;6.120;2023-03-23T10:08:55;14.50;99.90
7972;DHT22;4031;49.758;6.120;2023-03-23T10:11:45;15.00;99.90
7972;DHT22;4031;49.758;6.120;2023-03-23T10:22:26;16.10;99.90
7972;DHT22;4031;49.758;6.120;2023-03-23T10:28:10;16.70;99.90
7972;DHT22;4031;49.758;6.120;2023-03-23T10:30:49;16.60;99.90
7972;DHT22;4031;49.758;6.120;2023-03-23T10:33:40;16.60;99.90
7972;DHT22;4031;49.758;6.120;2023-03-23T10:36:23;16.20;99.90
7972;DHT22;4031;49.758;6.120;2023-03-23T10:39:13;16.00;99.90
7972;DHT22;4031;49.758;6.120;2023-03-23T10:41:42;15.80;99.90
7972;DHT22;4031;49.758;6.120;2023-03-23T10:44:17;15.70;99.90
7972;DHT22;4031;49.758;6.120;2023-03-23T10:46:46;15.60;99.90
7972;DHT22;4031;49.758;6.120;2023-03-23T10:52:15;15.40;99.90
7972;DHT22;4031;49.758;6.120;2023-03-23T10:55:11;15.30;99.90
7972;DHT22;4031;49.758;6.120;2023-03-23T10:57:39;15.30;99.90
7972;DHT22;4031;49.758;6.120;2023-03-23T11:00:25;15.20;99.90
7972;DHT22;4031;49.758;6.120;2023-03-23T11:05:35;15.30;99.90
7972;DHT22;4031;49.758;6.120;2023-03-23T11:08:03;15.50;99.90
7972;DHT22;4031;49.758;6.120;2023-03-23T11:10:37;15.60;99.90
7972;DHT22;4031;49.758;6.120;2023-03-23T11:13:04;15.80;99.90
7972;DHT22;4031;49.758;6.120;2023-03-23T11:15:37;16.20;99.90
7972;DHT22;4031;49.758;6.120;2023-03-23T11:21:12;17.10;99.90
7972;DHT22;4031;49.758;6.120;2023-03-23T11:23:41;17.10;99.90
7972;DHT22;4031;49.758;6.120;2023-03-23T11:26:16;17.00;99.90
7972;DHT22;4031;49.758;6.120;2023-03-23T11:29:13;16.80;99.90
7972;DHT22;4031;49.758;6.120;2023-03-23T11:31:46;17.00;99.90
7972;DHT22;4031;49.758;6.120;2023-03-23T11:34:21;16.80;99.90
7972;DHT22;4031;49.758;6.120;2023-03-23T11:36:55;16.20;99.90
7972;DHT22;4031;49.758;6.120;2023-03-23T11:39:33;15.80;99.90
7972;DHT22;4031;49.758;6.120;2023-03-23T11:42:20;15.60;99.90
7972;DHT22;4031;49.758;6.120;2023-03-23T11:45:17;15.50;99.90
7972;DHT22;4031;49.758;6.120;2023-03-23T11:50:53;15.40;99.90
7972;DHT22;4031;49.758;6.120;2023-03-23T11:58:32;14.70;99.90
7972;DHT22;4031;49.758;6.120;2023-03-23T12:06:43;14.20;99.90
7972;DHT22;4031;49.758;6.120;2023-03-23T12:09:48;14.00;99.90
7972;DHT22;4031;49.758;6.120;2023-03-23T12:19:12;13.60;99.90
7972;DHT22;4031;49.758;6.120;2023-03-23T12:27:56;13.80;99.90
7972;DHT22;4031;49.758;6.120;2023-03-23T12:40:06;16.10;99.90
7972;DHT22;4031;49.758;6.120;2023-03-23T12:49:05;17.70;99.90
7972;DHT22;4031;49.758;6.120;2023-03-23T12:51:44;17.50;99.90
7972;DHT22;4031;49.758;6.120;2023-03-23T12:54:24;16.90;99.90
7972;DHT22;4031;49.758;6.120;2023-03-23T12:57:10;17.20;99.90
7972;DHT22;4031;49.758;6.120;2023-03-23T12:59:49;17.70;99.90
7972;DHT22;4031;49.758;6.120;2023-03-23T13:08:10;18.60;99.90
7972;DHT22;4031;49.758;6.120;2023-03-23T13:10:47;18.60;99.90
7972;DHT22;4031;49.758;6.120;2023-03-23T13:13:20;18.30;99.90
7972;DHT22;4031;49.758;6.120;2023-03-23T13:22:08;16.50;99.90
7972;DHT22;4031;49.758;6.120;2023-03-23T13:24:53;16.00;99.90
7972;DHT22;4031;49.758;6.120;2023-03-23T13:27:26;16.40;99.90
7972;DHT22;4031;49.758;6.120;2023-03-23T13:29:54;17.10;99.90
7972;DHT22;4031;49.758;6.120;2023-03-23T13:32:34;17.30;99.90
7972;DHT22;4031;49.758;6.120;2023-03-23T13:35:04;17.50;99.90
7972;DHT22;4031;49.758;6.120;2023-03-23T13:37:32;16.90;99.90
7972;DHT22;4031;49.758;6.120;2023-03-23T13:40:16;16.50;99.90
7972;DHT22;4031;49.758;6.120;2023-03-23T13:42:52;16.40;99.90
7972;DHT22;4031;49.758;6.120;2023-03-23T13:48:05;15.50;99.90
7972;DHT22;4031;49.758;6.120;2023-03-23T13:50:56;15.00;99.90
7972;DHT22;4031;49.758;6.120;2023-03-23T13:53:30;14.80;99.90
7972;DHT22;4031;49.758;6.120;2023-03-23T13:56:17;14.50;99.90
7972;DHT22;4031;49.758;6.120;2023-03-23T14:01:42;14.30;99.90
7972;DHT22;4031;49.758;6.120;2023-03-23T14:04:16;14.30;99.90
7972;DHT22;4031;49.758;6.120;2023-03-23T14:06:44;14.20;99.90
7972;DHT22;4031;49.758;6.120;2023-03-23T14:09:33;14.20;99.90
7972;DHT22;4031;49.758;6.120;2023-03-23T14:12:04;14.20;99.90
7972;DHT22;4031;49.758;6.120;2023-03-23T14:14:41;14.80;99.90
7972;DHT22;4031;49.758;6.120;2023-03-23T14:17:16;15.80;99.90
7972;DHT22;4031;49.758;6.120;2023-03-23T14:19:51;16.30;99.90
7972;DHT22;4031;49.758;6.120;2023-03-23T14:22:40;16.60;99.90
7972;DHT22;4031;49.758;6.120;2023-03-23T14:25:17;16.80;99.90
7972;DHT22;4031;49.758;6.120;2023-03-23T14:27:45;16.60;99.90
7972;DHT22;4031;49.758;6.120;2023-03-23T14:30:20;16.20;99.90
7972;DHT22;4031;49.758;6.120;2023-03-23T14:32:47;15.80;99.90
7972;DHT22;4031;49.758;6.120;2023-03-23T14:37:49;15.40;99.90
7972;DHT22;4031;49.758;6.120;2023-03-23T14:40:17;15.20;99.90
7972;DHT22;4031;49.758;6.120;2023-03-23T14:42:44;15.00;99.90
7972;DHT22;4031;49.758;6.120;2023-03-23T14:45:14;14.90;99.90
7972;DHT22;4031;49.758;6.120;2023-03-23T14:47:57;14.90;99.90
7972;DHT22;4031;49.758;6.120;2023-03-23T14:53:02;14.70;99.90
7972;DHT22;4031;49.758;6.120;2023-03-23T14:55:35;14.60;99.90
7972;DHT22;4031;49.758;6.120;2023-03-23T14:58:08;14.60;99.90
7972;DHT22;4031;49.758;6.120;2023-03-23T15:00:46;14.60;99.90
7972;DHT22;4031;49.758;6.120;2023-03-23T15:03:24;14.70;99.90
7972;DHT22;4031;49.758;6.120;2023-03-23T15:05:55;14.90;99.90
7972;DHT22;4031;49.758;6.120;2023-03-23T15:08:27;14.90;99.90
7972;DHT22;4031;49.758;6.120;2023-03-23T15:11:11;15.00;99.90
7972;DHT22;4031;49.758;6.120;2023-03-23T15:13:50;15.20;99.90
7972;DHT22;4031;49.758;6.120;2023-03-23T15:19:00;15.50;99.90
7972;DHT22;4031;49.758;6.120;2023-03-23T15:21:49;15.70;99.90
7972;DHT22;4031;49.758;6.120;2023-03-23T15:24:33;15.80;99.90
7972;DHT22;4031;49.758;6.120;2023-03-23T15:29:58;15.70;99.90
7972;DHT22;4031;49.758;6.120;2023-03-23T15:32:31;15.70;99.90
7972;DHT22;4031;49.758;6.120;2023-03-23T15:35:11;15.70;99.90
7972;DHT22;4031;49.758;6.120;2023-03-23T15:37:53;15.80;99.90
7972;DHT22;4031;49.758;6.120;2023-03-23T15:40:24;15.80;99.90
7972;DHT22;4031;49.758;6.120;2023-03-23T15:43:27;15.80;99.90
7972;DHT22;4031;49.758;6.120;2023-03-23T15:46:01;15.90;99.90
7972;DHT22;4031;49.758;6.120;2023-03-23T15:48:48;15.80;99.90
7972;DHT22;4031;49.758;6.120;2023-03-23T15:51:17;15.70;99.90
7972;DHT22;4031;49.758;6.120;2023-03-23T15:53:45;15.50;99.90
7972;DHT22;4031;49.758;6.120;2023-03-23T15:56:13;15.40;99.90
7972;DHT22;4031;49.758;6.120;2023-03-23T15:58:39;15.30;99.90
7972;DHT22;4031;49.758;6.120;2023-03-23T16:01:17;15.10;99.90
7972;DHT22;4031;49.758;6.120;2023-03-23T16:03:56;14.90;99.90
7972;DHT22;4031;49.758;6.120;2023-03-23T16:06:26;14.70;99.90
7972;DHT22;4031;49.758;6.120;2023-03-23T16:08:53;14.50;99.90
7972;DHT22;4031;49.758;6.120;2023-03-23T16:11:19;14.40;99.90
7972;DHT22;4031;49.758;6.120;2023-03-23T16:13:45;14.30;99.90
7972;DHT22;4031;49.758;6.120;2023-03-23T16:18:41;14.20;99.90
7972;DHT22;4031;49.758;6.120;2023-03-23T16:21:07;14.10;99.90
7972;DHT22;4031;49.758;6.120;2023-03-23T16:23:33;14.10;99.90
7972;DHT22;4031;49.758;6.120;2023-03-23T16:25:59;14.10;99.90
7972;DHT22;4031;49.758;6.120;2023-03-23T16:28:25;14.20;99.90
7972;DHT22;4031;49.758;6.120;2023-03-23T16:30:50;14.10;99.90
7972;DHT22;4031;49.758;6.120;2023-03-23T16:33:16;14.10;99.90
7972;DHT22;4031;49.758;6.120;2023-03-23T16:35:42;14.10;99.90
7972;DHT22;4031;49.758;6.120;2023-03-23T16:38:13;14.10;99.90
7972;DHT22;4031;49.758;6.120;2023-03-23T16:40:41;14.00;99.90
7972;DHT22;4031;49.758;6.120;2023-03-23T16:43:08;14.10;99.90
7972;DHT22;4031;49.758;6.120;2023-03-23T16:45:34;14.10;99.90
7972;DHT22;4031;49.758;6.120;2023-03-23T16:47:59;14.00;99.90
7972;DHT22;4031;49.758;6.120;2023-03-23T16:50:28;14.00;99.90
7972;DHT22;4031;49.758;6.120;2023-03-23T16:52:54;13.90;99.90
7972;DHT22;4031;49.758;6.120;2023-03-23T16:55:20;13.80;99.90
7972;DHT22;4031;49.758;6.120;2023-03-23T16:57:46;13.70;99.90
7972;DHT22;4031;49.758;6.120;2023-03-23T17:00:15;13.60;99.90
7972;DHT22;4031;49.758;6.120;2023-03-23T17:02:45;13.50;99.90
7972;DHT22;4031;49.758;6.120;2023-03-23T17:05:13;13.40;99.90
7972;DHT22;4031;49.758;6.120;2023-03-23T17:07:40;13.30;99.90
7972;DHT22;4031;49.758;6.120;2023-03-23T17:10:08;13.30;99.90
7972;DHT22;4031;49.758;6.120;2023-03-23T17:12:34;13.20;99.90
7972;DHT22;4031;49.758;6.120;2023-03-23T17:15:01;13.00;99.90
7972;DHT22;4031;49.758;6.120;2023-03-23T17:17:27;12.90;99.90
7972;DHT22;4031;49.758;6.120;2023-03-23T17:19:53;12.80;99.90
7972;DHT22;4031;49.758;6.120;2023-03-23T17:22:19;12.70;99.90
7972;DHT22;4031;49.758;6.120;2023-03-23T17:24:45;12.70;99.90
7972;DHT22;4031;49.758;6.120;2023-03-23T17:27:15;12.60;99.90
7972;DHT22;4031;49.758;6.120;2023-03-23T17:29:42;12.50;99.90
7972;DHT22;4031;49.758;6.120;2023-03-23T17:32:09;12.40;99.90
7972;DHT22;4031;49.758;6.120;2023-03-23T17:34:35;12.40;99.90
7972;DHT22;4031;49.758;6.120;2023-03-23T17:37:01;12.30;99.90
7972;DHT22;4031;49.758;6.120;2023-03-23T17:39:27;12.20;99.90
7972;DHT22;4031;49.758;6.120;2023-03-23T17:41:53;12.10;99.90
7972;DHT22;4031;49.758;6.120;2023-03-23T17:44:19;12.00;99.90
7972;DHT22;4031;49.758;6.120;2023-03-23T17:46:45;11.80;99.90
7972;DHT22;4031;49.758;6.120;2023-03-23T17:49:11;11.80;99.90
7972;DHT22;4031;49.758;6.120;2023-03-23T17:51:37;11.80;99.90
7972;DHT22;4031;49.758;6.120;2023-03-23T17:54:02;11.80;99.90
7972;DHT22;4031;49.758;6.120;2023-03-23T17:56:28;11.80;99.90
7972;DHT22;4031;49.758;6.120;2023-03-23T17:58:54;11.70;99.90
7972;DHT22;4031;49.758;6.120;2023-03-23T18:01:20;11.60;99.90
7972;DHT22;4031;49.758;6.120;2023-03-23T18:03:45;11.60;99.90
7972;DHT22;4031;49.758;6.120;2023-03-23T18:06:11;11.50;99.90
7972;DHT22;4031;49.758;6.120;2023-03-23T18:08:38;11.30;99.90
7972;DHT22;4031;49.758;6.120;2023-03-23T18:11:04;11.20;99.90
7972;DHT22;4031;49.758;6.120;2023-03-23T18:13:32;11.20;99.90
7972;DHT22;4031;49.758;6.120;2023-03-23T18:15:58;11.20;99.90
7972;DHT22;4031;49.758;6.120;2023-03-23T18:18:25;11.10;99.90
7972;DHT22;4031;49.758;6.120;2023-03-23T18:21:05;11.00;99.90
7972;DHT22;4031;49.758;6.120;2023-03-23T18:23:33;11.00;99.90
7972;DHT22;4031;49.758;6.120;2023-03-23T18:26:08;11.00;99.90
7972;DHT22;4031;49.758;6.120;2023-03-23T18:28:36;11.10;99.90
7972;DHT22;4031;49.758;6.120;2023-03-23T18:31:08;11.20;99.90
7972;DHT22;4031;49.758;6.120;2023-03-23T18:33:36;11.40;99.90